createdAt,value
2023-04-05T00:01:00.049Z,27.27
2023-04-05T00:03:30.183Z,27.25
2023-04-05T00:06:00.659Z,27.21
2023-04-05T00:08:32.006Z,27.20
2023-04-05T00:11:02.296Z,27.16
2023-04-05T00:13:33.102Z,27.14
2023-04-05T00:16:03.667Z,27.11
2023-04-05T00:18:34.686Z,27.09
2023-04-05T00:21:05.242Z,27.05
2023-04-05T00:23:38.933Z,27.04
2023-04-05T00:26:09.679Z,27.02
2023-04-05T00:28:40.298Z,27.00
2023-04-05T00:31:10.653Z,27.00
2023-04-05T00:33:41.409Z,26.98
2023-04-05T00:36:14.219Z,26.96
2023-04-05T00:38:47.260Z,26.95
2023-04-05T00:41:18.379Z,26.93
2023-04-05T00:43:49.538Z,26.91
2023-04-05T00:46:20.199Z,26.89
2023-04-05T00:48:50.703Z,26.86
2023-04-05T00:51:21.794Z,26.84
2023-04-05T00:53:54.917Z,26.82
2023-04-05T00:56:26.859Z,26.78
2023-04-05T00:58:57.476Z,26.75
2023-04-05T01:01:31.709Z,26.72
2023-04-05T01:04:06.030Z,26.70
2023-04-05T01:07:00.524Z,26.66
2023-04-05T01:09:49.804Z,26.62
2023-04-05T01:12:23.133Z,26.59
2023-04-05T01:14:55.447Z,26.56
2023-04-05T01:17:28.647Z,26.53
2023-04-05T01:20:07.395Z,26.50
2023-04-05T01:23:25.434Z,26.44
2023-04-05T01:26:46.154Z,26.38
2023-04-05T01:29:52.602Z,26.35
2023-04-05T01:32:42.044Z,26.34
2023-04-05T01:35:24.403Z,26.33
2023-04-05T01:38:04.705Z,26.32
2023-04-05T01:40:39.504Z,26.29
2023-04-05T01:43:17.115Z,26.28
2023-04-05T01:45:49.605Z,26.26
2023-04-05T01:48:20.223Z,26.25
2023-04-05T01:50:50.222Z,26.23
2023-04-05T01:53:21.082Z,26.21
2023-04-05T01:55:51.762Z,26.18
2023-04-05T01:58:21.941Z,26.16
2023-04-05T02:00:58.209Z,26.11
2023-04-05T02:03:28.716Z,26.08
2023-04-05T02:06:00.777Z,26.05
2023-04-05T02:08:31.368Z,26.02
2023-04-05T02:11:01.334Z,26.00
2023-04-05T02:13:32.014Z,25.98
2023-04-05T02:16:04.239Z,25.95
2023-04-05T02:18:34.183Z,25.91
2023-04-05T02:21:05.807Z,25.88
2023-04-05T02:23:37.199Z,25.83
2023-04-05T02:26:08.011Z,25.79
2023-04-05T02:28:38.527Z,25.77
2023-04-05T02:31:14.639Z,25.74
2023-04-05T02:33:45.065Z,25.70
2023-04-05T02:36:15.869Z,25.68
2023-04-05T02:38:46.522Z,25.66
2023-04-05T02:41:16.966Z,25.64
2023-04-05T02:43:47.492Z,25.60
2023-04-05T02:46:19.560Z,25.58
2023-04-05T02:49:00.127Z,25.55
2023-04-05T02:51:30.945Z,25.51
2023-04-05T02:54:01.604Z,25.50
2023-04-05T02:56:32.842Z,25.49
2023-04-05T02:59:05.269Z,25.47
2023-04-05T03:01:39.163Z,25.45
2023-04-05T03:04:09.326Z,25.42
2023-04-05T03:06:39.885Z,25.41
2023-04-05T03:09:11.747Z,25.38
2023-04-05T03:11:41.734Z,25.36
2023-04-05T03:14:13.020Z,25.33
2023-04-05T03:16:53.490Z,25.32
2023-04-05T03:19:24.707Z,25.28
2023-04-05T03:21:56.217Z,25.26
2023-04-05T03:24:27.537Z,25.26
2023-04-05T03:27:00.538Z,25.24
2023-04-05T03:29:30.939Z,25.22
2023-04-05T03:32:03.245Z,25.22
2023-04-05T03:34:33.679Z,25.20
2023-04-05T03:37:03.834Z,25.16
2023-04-05T03:39:33.702Z,25.15
2023-04-05T03:42:03.840Z,25.12
2023-04-05T03:44:33.916Z,25.10
2023-04-05T03:47:06.290Z,25.10
2023-04-05T03:49:36.894Z,25.07
2023-04-05T03:52:07.669Z,25.06
2023-04-05T03:54:38.476Z,25.03
2023-04-05T03:57:09.580Z,25.03
2023-04-05T03:59:40.346Z,25.02
2023-04-05T04:02:12.300Z,25.03
2023-04-05T04:04:42.943Z,25.02
2023-04-05T04:07:13.411Z,25.04
2023-04-05T04:09:43.619Z,25.05
2023-04-05T04:12:13.546Z,25.06
2023-04-05T04:14:44.139Z,25.08
2023-04-05T04:17:30.449Z,25.10
2023-04-05T04:20:02.080Z,25.12
2023-04-05T04:22:33.623Z,25.14
2023-04-05T04:25:05.280Z,25.17
2023-04-05T04:27:37.348Z,25.19
2023-04-05T04:30:10.965Z,25.21
2023-04-05T04:32:53.885Z,25.23
2023-04-05T04:35:26.767Z,25.23
2023-04-05T04:38:00.260Z,25.26
2023-04-05T04:40:32.902Z,25.28
2023-04-05T04:43:03.165Z,25.30
2023-04-05T04:45:35.230Z,25.33
2023-04-05T04:48:07.956Z,25.37
2023-04-05T04:50:39.663Z,25.39
2023-04-05T04:53:10.184Z,25.42
2023-04-05T04:55:42.771Z,25.46
2023-04-05T04:58:13.627Z,25.50
2023-04-05T05:00:45.758Z,25.54
2023-04-05T05:03:17.906Z,25.58
2023-04-05T05:05:49.486Z,25.62
2023-04-05T05:08:21.498Z,25.64
2023-04-05T05:10:54.905Z,25.68
2023-04-05T05:13:25.425Z,25.71
2023-04-05T05:15:56.579Z,25.75
2023-04-05T05:18:29.263Z,25.79
2023-04-05T05:20:59.725Z,25.82
2023-04-05T05:23:30.042Z,25.86
2023-04-05T05:26:03.153Z,25.90
2023-04-05T05:28:33.124Z,25.94
2023-04-05T05:31:03.657Z,25.99
2023-04-05T05:33:35.710Z,26.02
2023-04-05T05:36:05.971Z,26.07
2023-04-05T05:38:36.605Z,26.11
2023-04-05T05:41:07.391Z,26.18
2023-04-05T05:43:37.868Z,26.23
2023-04-05T05:46:08.698Z,26.29
2023-04-05T05:48:42.376Z,26.34
2023-04-05T05:51:13.103Z,26.39
2023-04-05T05:53:42.978Z,26.44
2023-04-05T05:56:13.818Z,26.48
2023-04-05T05:58:43.970Z,26.54
2023-04-05T06:01:14.862Z,26.59
2023-04-05T06:03:47.794Z,26.65
2023-04-05T06:06:18.407Z,26.72
2023-04-05T06:08:48.397Z,26.77
2023-04-05T06:11:22.196Z,26.83
2023-04-05T06:13:53.180Z,26.86
2023-04-05T06:16:23.724Z,26.90
2023-04-05T06:18:56.052Z,26.94
2023-04-05T06:21:26.818Z,26.97
2023-04-05T06:23:57.463Z,27.02
2023-04-05T06:26:30.396Z,27.07
2023-04-05T06:29:00.922Z,27.12
2023-04-05T06:31:36.759Z,27.19
2023-04-05T06:34:09.653Z,27.24
2023-04-05T06:36:39.671Z,27.31
2023-04-05T06:39:10.479Z,27.36
2023-04-05T06:41:40.997Z,27.43
2023-04-05T06:44:12.001Z,27.49
2023-04-05T06:46:41.815Z,27.55
2023-04-05T06:49:14.374Z,27.60
2023-04-05T06:51:45.116Z,27.64
2023-04-05T06:54:15.618Z,27.71
2023-04-05T06:56:48.141Z,27.77
2023-04-05T06:59:18.614Z,27.84
2023-04-05T07:01:48.761Z,27.90
2023-04-05T07:04:21.223Z,27.98
2023-04-05T07:06:51.473Z,28.06
2023-04-05T07:09:22.761Z,28.12
2023-04-05T07:11:53.315Z,28.20
2023-04-05T07:14:23.771Z,28.24
2023-04-05T07:16:55.042Z,28.32
2023-04-05T07:19:26.703Z,28.39
2023-04-05T07:21:58.591Z,28.48
2023-04-05T07:24:29.700Z,28.52
2023-04-05T07:27:00.708Z,28.60
2023-04-05T07:29:32.877Z,28.65
2023-04-05T07:32:03.608Z,28.72
2023-04-05T07:34:35.946Z,28.79
2023-04-05T07:37:09.079Z,28.85
2023-04-05T07:39:39.169Z,28.90
2023-04-05T07:42:09.562Z,28.95
2023-04-05T07:44:40.037Z,28.99
2023-04-05T07:47:10.131Z,29.05
2023-04-05T07:49:42.300Z,29.11
2023-04-05T07:52:13.094Z,29.16
2023-04-05T07:54:46.388Z,29.20
2023-04-05T07:57:20.961Z,29.26
2023-04-05T07:59:53.448Z,29.29
2023-04-05T08:02:23.897Z,29.33
2023-04-05T08:04:57.306Z,29.37
2023-04-05T08:07:27.385Z,29.40
2023-04-05T08:09:59.580Z,29.45
2023-04-05T08:12:30.393Z,29.49
2023-04-05T08:15:01.069Z,29.53
2023-04-05T08:17:31.815Z,29.57
2023-04-05T08:20:04.695Z,29.62
2023-04-05T08:22:35.260Z,29.65
2023-04-05T08:25:06.237Z,29.70
2023-04-05T08:27:37.617Z,29.74
2023-04-05T08:30:10.633Z,29.76
2023-04-05T08:32:41.625Z,29.80
2023-04-05T08:35:15.019Z,29.82
2023-04-05T08:37:44.915Z,29.83
2023-04-05T08:40:16.441Z,29.87
2023-04-05T08:42:59.908Z,29.89
2023-04-05T08:45:30.201Z,29.90
2023-04-05T08:48:01.087Z,29.94
2023-04-05T08:50:33.423Z,29.99
2023-04-05T08:53:04.126Z,30.00
2023-04-05T08:55:34.986Z,30.03
2023-04-05T08:58:16.340Z,30.07
2023-04-05T09:00:46.781Z,30.09
2023-04-05T09:03:22.753Z,30.12
2023-04-05T09:05:56.830Z,30.12
2023-04-05T09:08:30.108Z,30.16
2023-04-05T09:11:00.648Z,30.17
2023-04-05T09:13:31.403Z,30.18
2023-04-05T09:16:04.954Z,30.22
2023-04-05T09:18:35.798Z,30.24
2023-04-05T09:21:10.534Z,30.26
2023-04-05T09:23:53.449Z,30.26
2023-04-05T09:26:25.397Z,30.27
2023-04-05T09:28:56.101Z,30.28
2023-04-05T09:31:44.371Z,30.28
2023-04-05T09:34:24.134Z,30.29
2023-04-05T09:36:56.700Z,30.30
2023-04-05T09:39:33.426Z,30.34
2023-04-05T09:42:12.217Z,30.35
2023-04-05T09:44:57.443Z,30.36
2023-04-05T09:47:31.752Z,30.36
2023-04-05T09:50:02.750Z,30.37
2023-04-05T09:52:37.114Z,30.37
2023-04-05T09:55:09.115Z,30.37
2023-04-05T09:57:41.822Z,30.37
2023-04-05T10:00:22.912Z,30.37
2023-04-05T10:02:58.746Z,30.36
2023-04-05T10:05:31.211Z,30.34
2023-04-05T10:08:05.329Z,30.33
2023-04-05T10:10:50.064Z,30.32
2023-04-05T10:13:20.955Z,30.32
2023-04-05T10:15:57.003Z,30.33
2023-04-05T10:18:40.100Z,30.33
2023-04-05T10:21:18.343Z,30.34
2023-04-05T10:24:02.163Z,30.33
2023-04-05T10:26:48.469Z,30.32
2023-04-05T10:29:32.464Z,30.31
2023-04-05T10:32:16.499Z,30.31
2023-04-05T10:35:00.134Z,30.29
2023-04-05T10:37:55.595Z,30.28
2023-04-05T10:40:36.104Z,30.27
2023-04-05T10:43:17.202Z,30.27
2023-04-05T10:45:51.249Z,30.27
2023-04-05T10:48:37.515Z,30.27
2023-04-05T10:51:08.969Z,30.27
2023-04-05T10:53:41.646Z,30.27
2023-04-05T10:56:15.904Z,30.26
2023-04-05T10:58:49.174Z,30.26
2023-04-05T11:01:21.990Z,30.26
2023-04-05T11:03:55.215Z,30.25
2023-04-05T11:06:32.720Z,30.24
2023-04-05T11:09:12.057Z,30.24
2023-04-05T11:11:46.728Z,30.23
2023-04-05T11:14:26.260Z,30.23
2023-04-05T11:16:59.459Z,30.23
2023-04-05T11:19:53.778Z,30.21
2023-04-05T11:22:31.744Z,30.20
2023-04-05T11:25:04.864Z,30.20
2023-04-05T11:27:41.380Z,30.20
2023-04-05T11:30:13.636Z,30.20
2023-04-05T11:32:45.338Z,30.20
2023-04-05T11:35:23.614Z,30.21
2023-04-05T11:38:23.300Z,30.21
2023-04-05T11:41:08.560Z,30.19
2023-04-05T11:43:43.066Z,30.18
2023-04-05T11:46:15.826Z,30.18
2023-04-05T11:48:46.966Z,30.19
2023-04-05T11:51:19.089Z,30.18
2023-04-05T11:53:50.993Z,30.16
2023-04-05T11:56:21.955Z,30.15
2023-04-05T11:58:54.697Z,30.13
2023-04-05T12:01:25.408Z,30.12
2023-04-05T12:03:57.725Z,30.09
2023-04-05T12:06:29.739Z,30.07
2023-04-05T12:08:59.971Z,30.04
2023-04-05T12:11:31.758Z,30.05
2023-04-05T12:14:05.522Z,30.04
2023-04-05T12:16:36.109Z,30.02
2023-04-05T12:19:06.481Z,30.00
2023-04-05T12:21:37.366Z,29.99
2023-04-05T12:24:08.258Z,29.96
2023-04-05T12:26:38.446Z,29.94
2023-04-05T12:29:10.639Z,29.92
2023-04-05T12:31:45.977Z,29.90
2023-04-05T12:34:17.678Z,29.88
2023-04-05T12:36:49.326Z,29.87
2023-04-05T12:39:20.164Z,29.84
2023-04-05T12:42:01.769Z,29.82
2023-04-05T12:44:35.909Z,29.80
2023-04-05T12:47:11.410Z,29.77
2023-04-05T12:49:41.933Z,29.75
2023-04-05T12:52:12.389Z,29.73
2023-04-05T12:54:42.778Z,29.71
2023-04-05T12:57:14.766Z,29.70
2023-04-05T12:59:46.713Z,29.69
2023-04-05T13:02:16.894Z,29.67
2023-04-05T13:04:47.437Z,29.62
2023-04-05T13:07:17.796Z,29.59
2023-04-05T13:09:47.781Z,29.57
2023-04-05T13:12:17.841Z,29.53
2023-04-05T13:14:49.932Z,29.50
2023-04-05T13:17:21.537Z,29.44
2023-04-05T13:19:51.997Z,29.41
2023-04-05T13:22:22.703Z,29.38
2023-04-05T13:24:54.377Z,29.34
2023-04-05T13:27:24.534Z,29.30
2023-04-05T13:29:56.720Z,29.27
2023-04-05T13:32:26.928Z,29.22
2023-04-05T13:34:57.440Z,29.19
2023-04-05T13:37:27.207Z,29.16
2023-04-05T13:39:57.300Z,29.14
2023-04-05T13:42:28.124Z,29.10
2023-04-05T13:45:00.706Z,29.09
2023-04-05T13:47:31.410Z,29.07
2023-04-05T13:50:03.082Z,29.05
2023-04-05T13:52:33.716Z,29.03
2023-04-05T13:55:04.981Z,29.02
2023-04-05T13:57:35.593Z,28.99
2023-04-05T14:00:09.396Z,28.99
2023-04-05T14:02:40.185Z,28.97
2023-04-05T14:05:11.910Z,28.96
2023-04-05T14:07:42.667Z,28.94
2023-04-05T14:10:14.025Z,28.91
2023-04-05T14:12:44.478Z,28.89
2023-04-05T14:15:17.640Z,28.88
2023-04-05T14:17:47.554Z,28.87
2023-04-05T14:20:18.312Z,28.85
2023-04-05T14:22:48.927Z,28.83
2023-04-05T14:25:19.564Z,28.82
2023-04-05T14:27:50.075Z,28.80
2023-04-05T14:30:22.297Z,28.78
2023-04-05T14:32:52.995Z,28.77
2023-04-05T14:35:23.561Z,28.74
2023-04-05T14:37:53.816Z,28.71
2023-04-05T14:40:24.273Z,28.69
2023-04-05T14:42:55.213Z,28.68
2023-04-05T14:45:29.175Z,28.66
2023-04-05T14:47:59.927Z,28.63
2023-04-05T14:50:33.219Z,28.61
2023-04-05T14:53:03.910Z,28.60
2023-04-05T14:55:34.168Z,28.57
2023-04-05T14:58:03.904Z,28.55
2023-04-05T15:00:37.501Z,28.53
2023-04-05T15:03:08.368Z,28.51
2023-04-05T15:05:39.162Z,28.47
2023-04-05T15:08:09.819Z,28.45
2023-04-05T15:10:42.905Z,28.42
2023-04-05T15:13:14.649Z,28.40
2023-04-05T15:15:47.174Z,28.38
2023-04-05T15:18:17.173Z,28.35
2023-04-05T15:20:48.613Z,28.33
2023-04-05T15:23:19.219Z,28.31
2023-04-05T15:25:49.314Z,28.28
2023-04-05T15:28:19.678Z,28.23
2023-04-05T15:30:52.721Z,28.22
2023-04-05T15:33:23.422Z,28.18
2023-04-05T15:35:53.824Z,28.16
2023-04-05T15:38:24.386Z,28.13
2023-04-05T15:40:57.262Z,28.11
2023-04-05T15:43:27.710Z,28.08
2023-04-05T15:46:00.312Z,28.05
2023-04-05T15:48:30.426Z,28.03
2023-04-05T15:51:01.488Z,28.02
2023-04-05T15:53:32.166Z,28.00
2023-04-05T15:56:02.549Z,27.97
2023-04-05T15:58:32.624Z,27.95
2023-04-05T16:01:05.179Z,27.93
2023-04-05T16:03:36.343Z,27.91
2023-04-05T16:06:06.651Z,27.90
2023-04-05T16:08:37.150Z,27.88
2023-04-05T16:11:08.918Z,27.86
2023-04-05T16:13:39.526Z,27.84
2023-04-05T16:16:20.439Z,27.83
2023-04-05T16:18:58.878Z,27.79
2023-04-05T16:21:30.146Z,27.77
2023-04-05T16:24:01.473Z,27.75
2023-04-05T16:26:38.020Z,27.75
2023-04-05T16:29:09.298Z,27.72
2023-04-05T16:31:47.747Z,27.71
2023-04-05T16:34:22.037Z,27.67
2023-04-05T16:36:52.261Z,27.66
2023-04-05T16:39:22.800Z,27.65
2023-04-05T16:41:52.881Z,27.62
2023-04-05T16:44:22.918Z,27.59
2023-04-05T16:46:55.582Z,27.57
2023-04-05T16:49:25.698Z,27.53
2023-04-05T16:51:56.246Z,27.49
2023-04-05T16:54:26.799Z,27.46
2023-04-05T16:56:56.899Z,27.42
2023-04-05T16:59:27.431Z,27.40
2023-04-05T17:02:00.457Z,27.38
2023-04-05T17:04:30.534Z,27.37
2023-04-05T17:07:01.075Z,27.34
2023-04-05T17:09:31.166Z,27.33
2023-04-05T17:12:01.462Z,27.30
2023-04-05T17:14:31.592Z,27.28
2023-04-05T17:17:03.646Z,27.29
2023-04-05T17:19:34.925Z,27.25
2023-04-05T17:22:04.980Z,27.24
2023-04-05T17:24:38.182Z,27.23
2023-04-05T17:27:08.737Z,27.22
2023-04-05T17:29:39.373Z,27.19
2023-04-05T17:32:12.512Z,27.17
2023-04-05T17:34:42.400Z,27.16
2023-04-05T17:37:12.864Z,27.15
2023-04-05T17:39:43.399Z,27.14
2023-04-05T17:42:14.059Z,27.12
2023-04-05T17:44:44.509Z,27.09
2023-04-05T17:47:16.233Z,27.08
2023-04-05T17:49:46.310Z,27.06
2023-04-05T17:52:16.297Z,27.04
2023-04-05T17:54:46.911Z,27.03
2023-04-05T17:57:17.484Z,27.03
2023-04-05T17:59:48.503Z,27.02
2023-04-05T18:02:20.983Z,27.02
2023-04-05T18:04:51.599Z,27.00
2023-04-05T18:07:22.302Z,26.99
2023-04-05T18:09:53.037Z,26.96
2023-04-05T18:12:23.615Z,26.93
2023-04-05T18:14:54.225Z,26.90
2023-04-05T18:17:27.298Z,26.87
2023-04-05T18:19:57.687Z,26.85
2023-04-05T18:22:28.312Z,26.84
2023-04-05T18:24:58.733Z,26.83
2023-04-05T18:27:29.484Z,26.82
2023-04-05T18:29:59.339Z,26.80
2023-04-05T18:32:31.746Z,26.77
2023-04-05T18:35:02.313Z,26.76
2023-04-05T18:37:33.066Z,26.76
2023-04-05T18:40:03.973Z,26.74
2023-04-05T18:42:35.903Z,26.74
2023-04-05T18:45:07.119Z,26.74
2023-04-05T18:47:39.675Z,26.74
2023-04-05T18:50:11.536Z,26.75
2023-04-05T18:52:42.167Z,26.75
2023-04-05T18:55:12.444Z,26.74
2023-04-05T18:57:42.977Z,26.75
2023-04-05T19:00:14.658Z,26.76
2023-04-05T19:02:46.778Z,26.76
2023-04-05T19:05:16.972Z,26.76
2023-04-05T19:07:47.733Z,26.76
2023-04-05T19:10:18.658Z,26.76
2023-04-05T19:12:49.487Z,26.76
2023-04-05T19:15:20.146Z,26.76
2023-04-05T19:17:52.494Z,26.75
2023-04-05T19:20:23.081Z,26.75
2023-04-05T19:22:53.575Z,26.75
2023-04-05T19:25:24.139Z,26.74
2023-04-05T19:27:55.416Z,26.74
2023-04-05T19:30:26.118Z,26.74
2023-04-05T19:32:58.921Z,26.74
2023-04-05T19:35:30.705Z,26.73
2023-04-05T19:38:01.879Z,26.72
2023-04-05T19:40:32.670Z,26.71
2023-04-05T19:43:03.797Z,26.70
2023-04-05T19:45:35.303Z,26.70
2023-04-05T19:48:39.838Z,26.69
2023-04-05T19:51:11.558Z,26.67
2023-04-05T19:53:48.409Z,26.68
2023-04-05T19:56:25.986Z,26.67
2023-04-05T19:59:02.068Z,26.67
2023-04-05T20:01:40.110Z,26.66
2023-04-05T20:04:19.037Z,26.65
2023-04-05T20:06:53.469Z,26.64
2023-04-05T20:09:26.352Z,26.64
2023-04-05T20:12:00.744Z,26.62
2023-04-05T20:14:35.691Z,26.62
2023-04-05T20:17:07.162Z,26.61
2023-04-05T20:19:43.811Z,26.61
2023-04-05T20:22:13.915Z,26.60
2023-04-05T20:24:44.349Z,26.59
2023-04-05T20:27:15.884Z,26.59
2023-04-05T20:29:46.531Z,26.59
2023-04-05T20:32:17.377Z,26.58
2023-04-05T20:34:50.863Z,26.57
2023-04-05T20:37:21.352Z,26.57
2023-04-05T20:39:51.888Z,26.57
2023-04-05T20:42:22.488Z,26.55
2023-04-05T20:44:53.380Z,26.56
2023-04-05T20:47:23.329Z,26.55
2023-04-05T20:49:55.890Z,26.55
2023-04-05T20:52:26.988Z,26.53
2023-04-05T20:54:58.019Z,26.53
2023-04-05T20:57:29.728Z,26.53
2023-04-05T21:00:02.679Z,26.52
2023-04-05T21:02:33.324Z,26.51
2023-04-05T21:05:05.629Z,26.50
2023-04-05T21:07:36.845Z,26.48
2023-04-05T21:10:08.625Z,26.48
2023-04-05T21:12:39.132Z,26.46
2023-04-05T21:15:11.218Z,26.46
2023-04-05T21:17:41.778Z,26.45
2023-04-05T21:20:15.444Z,26.43
2023-04-05T21:22:46.204Z,26.43
2023-04-05T21:25:16.750Z,26.42
2023-04-05T21:27:46.906Z,26.40
2023-04-05T21:30:18.653Z,26.41
2023-04-05T21:32:49.167Z,26.40
2023-04-05T21:35:21.712Z,26.39
2023-04-05T21:37:52.403Z,26.37
2023-04-05T21:40:22.922Z,26.37
2023-04-05T21:42:53.514Z,26.36
2023-04-05T21:45:24.002Z,26.36
2023-04-05T21:47:54.413Z,26.35
2023-04-05T21:50:26.822Z,26.34
2023-04-05T21:52:56.992Z,26.34
2023-04-05T21:55:27.257Z,26.32
2023-04-05T21:57:57.164Z,26.32
2023-04-05T22:00:28.543Z,26.32
2023-04-05T22:02:58.414Z,26.30
2023-04-05T22:05:37.825Z,26.31
2023-04-05T22:08:10.932Z,26.29
2023-04-05T22:10:42.379Z,26.28
2023-04-05T22:13:12.988Z,26.27
2023-04-05T22:15:44.603Z,26.26
2023-04-05T22:18:15.249Z,26.25
2023-04-05T22:20:47.813Z,26.25
2023-04-05T22:23:18.261Z,26.24
2023-04-05T22:25:49.353Z,26.23
2023-04-05T22:28:19.769Z,26.23
2023-04-05T22:30:50.042Z,26.22
2023-04-05T22:33:20.119Z,26.22
2023-04-05T22:35:52.733Z,26.22
2023-04-05T22:38:22.785Z,26.21
2023-04-05T22:40:53.430Z,26.22
2023-04-05T22:43:24.352Z,26.22
2023-04-05T22:45:55.005Z,26.20
2023-04-05T22:48:26.474Z,26.21
2023-04-05T22:50:59.221Z,26.20
2023-04-05T22:53:29.374Z,26.21
2023-04-05T22:55:59.827Z,26.19
2023-04-05T22:58:32.980Z,26.19
2023-04-05T23:01:03.894Z,26.19
2023-04-05T23:03:34.084Z,26.18
2023-04-05T23:06:06.354Z,26.17
2023-04-05T23:08:37.171Z,26.17
2023-04-05T23:11:07.982Z,26.17
2023-04-05T23:13:37.923Z,26.16
2023-04-05T23:16:09.572Z,26.15
2023-04-05T23:18:39.664Z,26.13
2023-04-05T23:21:12.191Z,26.12
2023-04-05T23:23:42.322Z,26.10
2023-04-05T23:26:12.868Z,26.07
2023-04-05T23:28:43.783Z,26.05
2023-04-05T23:31:14.288Z,26.03
2023-04-05T23:33:44.798Z,26.01
2023-04-05T23:36:17.455Z,26.00
2023-04-05T23:38:47.503Z,25.98
2023-04-05T23:41:18.149Z,25.96
2023-04-05T23:43:48.387Z,25.95
2023-04-05T23:46:19.052Z,25.93
2023-04-05T23:48:49.007Z,25.91
2023-04-05T23:51:20.560Z,25.90
2023-04-05T23:53:51.857Z,25.88
2023-04-05T23:56:21.617Z,25.87
2023-04-05T23:58:52.201Z,25.86
